Time;durP1;ratioP1;P1;durP2;ratioP2;P2;SDS_P1;SDS_P2;PMS_P1;PMS_P2;Temp;Humidity;BMP_temperature;BMP_pressure;BME280_temperature;BME280_humidity;BME280_pressure;Samples;Min_cycle;Max_cycle;Signal;HPM_P1;HPM_P2
2022/06/07 00:00:31;;;;;;;7.55;3.60;;;;;;;10.37;55.92;101011.41;4973460;28;20363;-77
2022/06/07 00:02:58;;;;;;;6.25;3.55;;;;;;;10.36;55.61;101026.22;4960801;28;20065;-79
2022/06/07 00:05:24;;;;;;;11.23;4.05;;;;;;;10.01;56.55;101017.03;4959574;28;20041;-78
2022/06/07 00:08:31;;;;;;;6.65;3.33;;;;;;;10.18;56.03;101009.47;4965521;28;20123;-76
2022/06/07 00:10:58;;;;;;;7.68;4.03;;;;;;;10.22;55.66;101012.84;4963672;28;20098;-77
2022/06/07 00:13:25;;;;;;;9.38;3.50;;;;;;;10.25;55.67;101017.94;4955401;28;20053;-77
2022/06/07 00:15:51;;;;;;;6.60;3.95;;;;;;;10.45;55.29;101009.38;4954670;28;20137;-79
2022/06/07 00:18:17;;;;;;;8.27;3.88;;;;;;;10.22;55.76;101013.69;4943533;28;20077;-78
2022/06/07 00:20:43;;;;;;;5.38;3.30;;;;;;;10.35;55.67;101002.78;4949340;28;20042;-79
2022/06/07 00:23:14;;;;;;;6.53;3.38;;;;;;;10.12;56.23;101011.44;4930790;28;20038;-77
2022/06/07 00:25:42;;;;;;;11.93;3.80;;;;;;;9.56;57.62;100999.44;4949740;28;20525;-78
2022/06/07 00:28:09;;;;;;;7.95;3.45;;;;;;;10.10;56.27;100998.47;4962160;28;20039;-77
2022/06/07 00:30:36;;;;;;;5.30;4.07;;;;;;;10.35;55.21;100985.34;4965005;28;20038;-78
2022/06/07 00:33:08;;;;;;;5.15;3.30;;;;;;;10.30;55.61;100983.81;4965197;28;20035;-77
2022/06/07 00:36:14;;;;;;;7.90;3.33;;;;;;;9.93;56.48;100985.16;4959985;28;20037;-78
2022/06/07 00:38:42;;;;;;;7.93;4.72;;;;;;;10.27;55.31;100974.31;4979015;28;20046;-74
2022/06/07 00:41:08;;;;;;;12.45;4.90;;;;;;;10.28;55.43;100980.41;4947071;28;20031;-77
2022/06/07 00:43:34;;;;;;;10.75;4.00;;;;;;;10.11;55.40;100968.81;4892764;28;20054;-77
2022/06/07 00:45:59;;;;;;;8.30;3.63;;;;;;;10.34;54.79;100967.09;4952165;28;20030;-77
2022/06/07 00:48:27;;;;;;;10.20;3.50;;;;;;;10.43;54.69;100969.38;4975767;28;20425;-78
2022/06/07 00:50:55;;;;;;;7.10;3.42;;;;;;;10.14;55.24;100973.06;4957923;28;20111;-78
2022/06/07 00:53:31;;;;;;;7.00;3.75;;;;;;;10.52;54.66;100961.19;4975866;28;20062;-78
2022/06/07 00:56:07;;;;;;;9.27;4.57;;;;;;;10.34;55.19;100964.50;4959449;28;20038;-78
2022/06/07 00:58:35;;;;;;;7.57;3.22;;;;;;;10.12;55.24;100960.06;4960180;28;20055;-78
2022/06/07 01:01:02;;;;;;;7.15;3.80;;;;;;;10.41;54.58;100955.50;4962665;28;20767;-77
2022/06/07 01:03:28;;;;;;;6.05;3.80;;;;;;;9.56;57.02;100955.06;4960934;28;20058;-77
2022/06/07 01:10:43;;;;;;;8.52;3.35;;;;;;;10.08;55.11;100952.41;4950390;28;20039;-77
2022/06/07 01:11:27;;;;;;;6.13;2.90;;;;;;;10.24;54.89;100945.72;4974362;28;20378;-76
2022/06/07 01:13:53;;;;;;;6.80;4.10;;;;;;;10.26;54.94;100943.91;4965190;28;20051;-77
2022/06/07 01:16:28;;;;;;;8.38;3.30;;;;;;;10.16;54.99;100940.75;4947236;28;20041;-78
2022/06/07 01:18:54;;;;;;;4.95;3.35;;;;;;;9.85;56.21;100945.41;4976929;28;20043;-77
2022/06/07 01:21:32;;;;;;;5.53;3.55;;;;;;;10.34;54.79;100943.59;4979324;28;20034;-79
2022/06/07 01:23:59;;;;;;;9.65;3.72;;;;;;;10.56;54.44;100944.47;4961591;28;20069;-78
2022/06/07 01:26:32;;;;;;;7.38;3.90;;;;;;;10.72;53.91;100944.72;4955075;28;20556;-77
2022/06/07 01:29:03;;;;;;;8.95;3.08;;;;;;;10.16;55.37;100938.16;4963944;28;20070;-76
2022/06/07 01:31:29;;;;;;;8.48;3.58;;;;;;;10.27;55.51;100936.91;4965012;28;20035;-78
2022/06/07 01:33:55;;;;;;;10.15;3.45;;;;;;;10.43;54.80;100938.84;4965029;28;20046;-78
2022/06/07 01:36:21;;;;;;;8.15;4.20;;;;;;;10.11;56.10;100937.47;4965578;28;20410;-78
2022/06/07 01:41:53;;;;;;;6.72;3.80;;;;;;;9.99;56.18;100928.34;4959101;28;20039;-77
2022/06/07 01:41:54;;;;;;;7.82;4.15;;;;;;;10.07;56.29;100922.81;4971301;28;20043;-78
2022/06/07 01:44:36;;;;;;;5.78;3.53;;;;;;;10.39;54.92;100925.97;4942858;28;20701;-78
2022/06/07 01:47:03;;;;;;;7.15;4.30;;;;;;;10.43;54.79;100927.56;4963159;28;20030;-76
2022/06/07 01:49:32;;;;;;;10.85;4.10;;;;;;;10.59;54.42;100919.97;4961950;28;20039;-77
2022/06/07 01:51:58;;;;;;;6.60;3.30;;;;;;;10.41;54.68;100913.72;4947393;28;20054;-76
2022/06/07 01:54:26;;;;;;;6.60;3.83;;;;;;;10.64;53.89;100907.59;4963293;28;20126;-80
2022/06/07 01:56:53;;;;;;;7.30;4.00;;;;;;;10.52;54.75;100901.06;4935339;28;21049;-80
2022/06/07 01:59:19;;;;;;;8.00;4.13;;;;;;;10.24;55.29;100909.16;4974028;28;20032;-78
2022/06/07 02:01:47;;;;;;;8.25;4.05;;;;;;;10.25;55.30;100907.38;4964331;28;20035;-77
2022/06/07 02:04:13;;;;;;;6.35;4.38;;;;;;;10.45;54.76;100904.00;4948818;28;20102;-75
2022/06/07 02:06:39;;;;;;;7.45;4.03;;;;;;;10.60;54.41;100898.19;4961773;28;20069;-77
2022/06/07 02:09:08;;;;;;;8.75;4.45;;;;;;;10.30;55.15;100894.97;4967769;28;20043;-78
2022/06/07 02:11:36;;;;;;;5.38;4.13;;;;;;;10.37;54.92;100896.44;4963566;28;20035;-81
2022/06/07 02:14:07;;;;;;;9.93;4.90;;;;;;;10.44;54.80;100882.25;4974904;28;20065;-77
2022/06/07 02:16:33;;;;;;;10.35;4.68;;;;;;;10.19;55.47;100883.19;4950586;28;20043;-77
2022/06/07 02:18:59;;;;;;;7.05;4.18;;;;;;;10.59;54.44;100891.22;4968646;28;20058;-77
2022/06/07 02:21:35;;;;;;;7.00;4.20;;;;;;;10.42;55.19;100884.06;4962839;28;20035;-77
2022/06/07 02:24:01;;;;;;;9.02;4.65;;;;;;;10.50;54.46;100879.38;4974352;28;20109;-79
2022/06/07 02:26:32;;;;;;;10.07;5.20;;;;;;;10.36;55.24;100868.63;4951386;28;20038;-77
2022/06/07 02:29:20;;;;;;;11.70;5.35;;;;;;;10.32;55.38;100872.25;4976973;28;20086;-78
2022/06/07 02:31:51;;;;;;;11.52;4.95;;;;;;;10.52;54.74;100864.50;4969573;28;20090;-80
2022/06/07 02:34:19;;;;;;;8.85;4.60;;;;;;;10.16;55.78;100872.84;4962652;28;20601;-78
2022/06/07 02:36:50;;;;;;;9.95;5.57;;;;;;;10.29;55.55;100867.16;4962952;28;20066;-78
2022/06/07 02:39:17;;;;;;;9.07;5.40;;;;;;;10.33;55.17;100863.53;4967397;28;20035;-78
2022/06/07 02:41:46;;;;;;;9.00;4.88;;;;;;;10.43;54.95;100863.09;4961345;28;20042;-78
2022/06/07 02:44:11;;;;;;;11.73;5.78;;;;;;;10.12;55.79;100860.81;4944136;28;20039;-78
2022/06/07 02:46:37;;;;;;;12.02;6.03;;;;;;;10.43;54.80;100854.41;4965108;28;20134;-77
2022/06/07 02:49:04;;;;;;;8.27;5.47;;;;;;;10.08;56.34;100867.09;4951807;28;20085;-77
2022/06/07 02:51:31;;;;;;;13.23;6.55;;;;;;;10.67;54.33;100864.81;4948779;28;20039;-78
2022/06/07 02:53:58;;;;;;;11.13;5.60;;;;;;;10.29;55.60;100857.56;4954774;28;20572;-80
2022/06/07 02:56:26;;;;;;;9.32;5.38;;;;;;;10.66;54.69;100850.88;4967639;28;20659;-79
2022/06/07 02:58:52;;;;;;;10.23;6.07;;;;;;;10.32;55.16;100848.75;4965932;28;20032;-78
2022/06/07 03:01:18;;;;;;;8.05;5.65;;;;;;;10.55;54.71;100835.63;4969334;28;20045;-77
2022/06/07 03:03:45;;;;;;;14.40;7.07;;;;;;;10.57;54.87;100846.88;4958228;28;20066;-76
2022/06/07 03:06:13;;;;;;;11.02;6.68;;;;;;;10.72;54.75;100839.31;4963408;28;20073;-79
2022/06/07 03:08:38;;;;;;;11.25;5.80;;;;;;;10.72;54.45;100834.09;4965655;28;20039;-78
2022/06/07 03:11:05;;;;;;;10.63;6.95;;;;;;;10.12;56.24;100839.91;4952543;28;20035;-77
2022/06/07 03:13:34;;;;;;;10.35;7.43;;;;;;;10.41;55.48;100836.19;4974179;28;20077;-77
2022/06/07 03:16:02;;;;;;;10.27;6.50;;;;;;;10.54;55.22;100836.53;4961012;28;20118;-78
2022/06/07 03:18:28;;;;;;;10.57;6.90;;;;;;;10.99;54.00;100838.19;4977231;28;20039;-78
2022/06/07 03:20:54;;;;;;;13.32;6.28;;;;;;;11.04;54.09;100841.47;4948728;28;20113;-78
2022/06/07 03:23:22;;;;;;;11.43;6.15;;;;;;;10.79;54.36;100840.75;4937704;28;20038;-78
2022/06/07 03:26:02;;;;;;;12.32;7.68;;;;;;;10.69;54.91;100835.06;4974526;28;20031;-78
2022/06/07 03:28:29;;;;;;;10.80;6.28;;;;;;;10.55;55.35;100833.03;4961422;28;20078;-78
2022/06/07 03:31:06;;;;;;;8.82;5.70;;;;;;;10.80;54.41;100821.56;4950006;28;20038;-82
2022/06/07 03:33:35;;;;;;;11.10;7.05;;;;;;;10.84;54.60;100829.25;4940356;28;20070;-81
2022/06/07 03:36:04;;;;;;;8.27;5.68;;;;;;;10.66;54.84;100826.47;4950731;28;20030;-80
2022/06/07 03:38:32;;;;;;;9.45;6.05;;;;;;;10.66;54.57;100824.75;4944432;28;20098;-81
2022/06/07 03:40:58;;;;;;;8.35;5.95;;;;;;;10.56;55.35;100823.41;4959431;28;20030;-79
2022/06/07 03:43:26;;;;;;;10.73;5.82;;;;;;;10.74;54.44;100824.41;4963293;28;20494;-78
2022/06/07 03:45:54;;;;;;;8.90;5.32;;;;;;;11.03;53.80;100825.84;4956538;28;20038;-80
2022/06/07 03:48:20;;;;;;;7.82;5.28;;;;;;;10.87;53.94;100824.78;4957080;28;20130;-79
2022/06/07 03:50:49;;;;;;;8.70;4.85;;;;;;;10.59;54.19;100820.66;4945953;28;20030;-80
2022/06/07 03:53:15;;;;;;;7.22;5.10;;;;;;;10.49;54.46;100817.59;4954028;28;20125;-81
2022/06/07 03:55:47;;;;;;;7.38;5.18;;;;;;;11.02;53.48;100825.00;4975021;28;20050;-81
2022/06/07 03:58:15;;;;;;;5.90;4.65;;;;;;;10.14;55.24;100818.97;4937912;28;20039;-81
2022/06/07 04:00:43;;;;;;;6.10;4.47;;;;;;;10.79;53.41;100819.84;4956285;28;20041;-80
2022/06/07 04:03:09;;;;;;;7.18;4.47;;;;;;;10.68;53.29;100814.22;4952648;28;20098;-79
2022/06/07 04:05:42;;;;;;;9.52;5.35;;;;;;;10.71;53.02;100809.72;4954071;28;20046;-81
2022/06/07 04:08:10;;;;;;;5.10;4.55;;;;;;;10.71;53.13;100814.09;4971613;28;20438;-81
2022/06/07 04:10:50;;;;;;;8.43;5.50;;;;;;;10.58;53.49;100811.97;4946358;28;20134;-80
2022/06/07 04:13:21;;;;;;;6.90;4.35;;;;;;;10.89;52.86;100812.50;4957465;28;20039;-79
2022/06/07 04:15:49;;;;;;;7.25;5.20;;;;;;;10.91;52.93;100814.13;4970019;28;20095;-80
2022/06/07 04:18:17;;;;;;;10.65;5.32;;;;;;;11.02;52.65;100808.47;4955614;28;20126;-79
2022/06/07 04:20:43;;;;;;;10.52;5.57;;;;;;;10.76;53.19;100810.38;4970504;28;20038;-80
2022/06/07 04:23:16;;;;;;;9.73;5.30;;;;;;;10.75;53.59;100813.03;4932918;28;20141;-80
2022/06/07 04:25:41;;;;;;;10.23;5.20;;;;;;;10.45;54.37;100810.78;4953273;28;20050;-81
2022/06/07 04:28:11;;;;;;;9.95;5.32;;;;;;;10.93;52.86;100790.53;4939623;28;20334;-80
2022/06/07 04:30:38;;;;;;;7.25;4.90;;;;;;;11.10;52.78;100808.13;4943351;28;20044;-81
2022/06/07 04:33:05;;;;;;;11.45;5.47;;;;;;;10.68;53.86;100808.97;4950437;28;21110;-80
2022/06/07 04:35:31;;;;;;;9.32;6.20;;;;;;;10.35;54.65;100793.78;4944227;28;20413;-81
2022/06/07 04:38:01;;;;;;;6.40;4.93;;;;;;;10.90;53.51;100801.13;4952423;28;20043;-80
2022/06/07 04:40:33;;;;;;;12.05;5.68;;;;;;;10.52;54.19;100791.31;4964355;28;20031;-79
2022/06/07 04:43:01;;;;;;;8.38;5.45;;;;;;;11.18;52.88;100806.03;4946610;28;20716;-80
2022/06/07 04:45:31;;;;;;;11.20;6.20;;;;;;;11.13;53.04;100797.50;4954767;28;20050;-79
2022/06/07 04:48:06;;;;;;;7.90;5.63;;;;;;;10.85;53.78;100798.69;4941192;28;20065;-77
2022/06/07 04:50:35;;;;;;;9.57;6.20;;;;;;;10.75;54.09;100800.84;4955255;28;20273;-78
2022/06/07 04:53:02;;;;;;;8.18;5.95;;;;;;;10.89;53.59;100800.28;4936453;28;20042;-80
2022/06/07 04:55:28;;;;;;;10.70;6.05;;;;;;;10.59;54.40;100804.97;4952359;28;20035;-78
2022/06/07 04:57:55;;;;;;;8.55;5.43;;;;;;;11.03;53.54;100797.91;4956700;28;20150;-76
2022/06/07 05:00:20;;;;;;;9.05;6.35;;;;;;;10.61;54.51;100809.22;4965134;28;20240;-78
2022/06/07 05:02:55;;;;;;;8.25;5.97;;;;;;;10.80;53.79;100818.94;4949465;28;20042;-78
2022/06/07 05:05:21;;;;;;;11.75;6.38;;;;;;;10.04;56.32;100831.56;4954646;28;20032;-79
2022/06/07 05:07:48;;;;;;;9.27;6.05;;;;;;;10.32;56.52;100817.41;4964720;28;20043;-78
2022/06/07 05:10:17;;;;;;;11.85;6.82;;;;;;;9.51;59.07;100816.09;4954072;28;20069;-76
2022/06/07 05:12:48;;;;;;;17.58;8.35;;;;;;;9.87;58.58;100823.50;4952460;28;20053;-76
2022/06/07 05:15:19;;;;;;;13.82;7.25;;;;;;;10.04;58.33;100822.88;4956407;28;20081;-77
2022/06/07 05:18:08;;;;;;;12.55;7.93;;;;;;;9.72;59.15;100812.72;4964344;28;20043;-76
2022/06/07 05:20:37;;;;;;;12.52;7.93;;;;;;;9.66;59.52;100812.09;4940593;28;20046;-75
2022/06/07 05:23:08;;;;;;;13.68;8.50;;;;;;;10.03;58.61;100803.72;4966533;28;20043;-77
2022/06/07 05:25:37;;;;;;;12.32;7.07;;;;;;;9.59;60.01;100824.50;4954379;28;20043;-76
2022/06/07 05:28:04;;;;;;;14.73;8.10;;;;;;;10.20;57.82;100801.31;4934214;28;20066;-77
2022/06/07 05:30:33;;;;;;;20.70;7.45;;;;;;;10.10;58.55;100807.81;4951332;28;20031;-76
2022/06/07 05:33:07;;;;;;;11.07;7.28;;;;;;;9.79;59.28;100816.81;4939404;28;20660;-76
2022/06/07 05:35:42;;;;;;;13.63;8.65;;;;;;;9.67;59.84;100814.63;4969290;28;20205;-75
2022/06/07 05:38:13;;;;;;;13.40;7.88;;;;;;;9.54;60.41;100831.63;4937016;28;20039;-74
2022/06/07 05:40:41;;;;;;;18.38;8.30;;;;;;;9.89;59.06;100826.91;4964917;28;20105;-76
2022/06/07 05:43:11;;;;;;;13.40;8.02;;;;;;;9.73;59.99;100817.00;4957685;28;20043;-77
2022/06/07 05:45:40;;;;;;;14.25;8.07;;;;;;;9.76;60.10;100827.31;4960842;28;20569;-77
2022/06/07 05:48:16;;;;;;;14.38;8.35;;;;;;;9.31;61.12;100828.09;4963009;28;20074;-76
2022/06/07 05:50:52;;;;;;;13.32;7.95;;;;;;;10.12;58.95;100819.03;4967966;28;20045;-76
2022/06/07 05:53:23;;;;;;;14.77;7.90;;;;;;;9.90;59.78;100826.00;4955165;28;20039;-76
2022/06/07 05:55:48;;;;;;;13.95;7.55;;;;;;;9.79;59.98;100829.00;4969466;28;20493;-77
2022/06/07 05:58:16;;;;;;;14.32;7.93;;;;;;;10.33;58.38;100833.03;4961389;28;20031;-78
2022/06/07 06:00:42;;;;;;;13.77;7.28;;;;;;;10.09;58.61;100824.38;4939282;28;20027;-76
2022/06/07 06:03:10;;;;;;;17.48;7.85;;;;;;;10.16;59.00;100828.44;4956483;28;20049;-77
2022/06/07 06:05:46;;;;;;;16.63;7.57;;;;;;;9.57;60.17;100827.16;4965852;28;20181;-76
2022/06/07 06:11:07;;;;;;;13.02;6.68;;;;;;;10.45;57.42;100830.84;4966244;28;21301;-76
2022/06/07 06:13:35;;;;;;;10.57;6.40;;;;;;;9.51;59.53;100829.16;4950436;28;20039;-77
2022/06/07 06:16:05;;;;;;;9.45;6.15;;;;;;;9.80;58.92;100821.13;4952269;28;20038;-78
2022/06/07 06:18:34;;;;;;;11.57;6.43;;;;;;;9.83;59.27;100830.59;4967452;28;20035;-77
2022/06/07 06:20:59;;;;;;;10.43;5.72;;;;;;;9.83;59.14;100821.91;4953136;28;20062;-77
2022/06/07 06:23:26;;;;;;;11.30;6.32;;;;;;;10.24;57.65;100816.88;4954540;28;20304;-77
2022/06/07 06:25:52;;;;;;;12.48;7.40;;;;;;;10.39;57.51;100817.13;4957289;28;20098;-76
2022/06/07 06:28:19;;;;;;;12.02;6.43;;;;;;;10.56;57.05;100819.03;4952095;28;20486;-77
2022/06/07 06:30:47;;;;;;;12.82;6.82;;;;;;;10.45;57.33;100825.59;4970471;28;20481;-77
2022/06/07 06:33:26;;;;;;;14.93;6.97;;;;;;;10.15;58.48;100826.75;4956210;28;20050;-77
2022/06/07 06:35:55;;;;;;;10.68;6.15;;;;;;;10.31;58.07;100831.38;4950836;28;20078;-77
2022/06/07 06:38:31;;;;;;;11.05;6.32;;;;;;;10.25;58.20;100823.78;4937291;28;20093;-76
2022/06/07 06:40:57;;;;;;;11.38;6.28;;;;;;;10.59;57.59;100832.00;4968352;28;21076;-77
2022/06/07 06:43:23;;;;;;;12.05;6.28;;;;;;;10.97;56.36;100828.72;4969137;28;20049;-76
2022/06/07 06:46:34;;;;;;;10.65;6.43;;;;;;;9.68;59.24;100818.94;4949259;28;20047;-75
2022/06/07 06:49:03;;;;;;;14.98;5.95;;;;;;;9.56;60.15;100827.22;4968247;28;20062;-76
2022/06/07 06:51:31;;;;;;;12.98;5.13;;;;;;;10.33;58.26;100832.19;4959049;28;20138;-77
2022/06/07 06:54:00;;;;;;;11.15;6.35;;;;;;;9.86;59.49;100832.25;4934650;28;20039;-76
2022/06/07 06:56:33;;;;;;;10.02;5.50;;;;;;;9.39;61.39;100839.13;4947522;28;20062;-76
2022/06/07 06:59:06;;;;;;;11.80;6.82;;;;;;;9.53;60.78;100829.94;4966888;28;20560;-77
2022/06/07 07:01:34;;;;;;;10.32;6.32;;;;;;;10.43;59.19;100833.50;4943255;28;20035;-76
2022/06/07 07:04:06;;;;;;;16.85;6.00;;;;;;;10.18;59.83;100834.47;4937682;28;20043;-76
2022/06/07 07:06:33;;;;;;;9.73;5.35;;;;;;;9.94;59.74;100851.06;4950469;28;20046;-76
2022/06/07 07:09:03;;;;;;;11.15;4.90;;;;;;;10.35;58.57;100835.59;4968009;28;20047;-77
2022/06/07 07:11:42;;;;;;;8.50;4.35;;;;;;;10.71;57.22;100840.25;4969959;28;20045;-76
2022/06/07 07:14:10;;;;;;;6.93;4.22;;;;;;;10.08;58.85;100845.31;4968677;28;20047;-77
2022/06/07 07:16:44;;;;;;;9.32;4.25;;;;;;;10.80;56.91;100845.09;4940198;28;20035;-77
2022/06/07 07:19:13;;;;;;;9.10;4.53;;;;;;;10.64;57.59;100843.09;4955686;28;20470;-76
2022/06/07 07:21:43;;;;;;;10.02;4.28;;;;;;;9.88;59.70;100856.53;4967092;28;20054;-77
2022/06/07 07:24:15;;;;;;;8.07;4.00;;;;;;;9.63;59.95;100860.00;4949171;28;20042;-77
2022/06/07 07:26:45;;;;;;;6.57;3.45;;;;;;;10.14;58.93;100864.22;4938921;28;20035;-75
2022/06/07 07:29:17;;;;;;;4.68;2.78;;;;;;;9.82;59.24;100852.41;4955492;28;20110;-78
2022/06/07 07:31:44;;;;;;;6.53;3.33;;;;;;;9.56;60.64;100861.97;4969154;28;20077;-76
2022/06/07 07:34:14;;;;;;;7.22;2.13;;;;;;;9.19;61.03;100878.09;4951256;28;20043;-76
2022/06/07 07:36:46;;;;;;;5.10;1.77;;;;;;;9.78;59.53;100876.88;4964081;28;20031;-77
2022/06/07 07:39:13;;;;;;;6.90;1.00;;;;;;;9.06;60.34;100882.03;4950769;28;20030;-77
2022/06/07 07:41:41;;;;;;;3.80;0.90;;;;;;;8.75;60.62;100880.41;4943809;28;20393;-77
2022/06/07 07:44:11;;;;;;;3.10;0.60;;;;;;;9.85;57.80;100882.75;4950588;28;20395;-76
2022/06/07 07:46:40;;;;;;;;;;;;;;;9.86;58.22;100881.88;4951246;28;20134;-76
2022/06/07 07:49:07;;;;;;;2.05;1.05;;;;;;;10.37;57.11;100871.19;4962903;28;19922;-75
2022/06/07 07:51:40;;;;;;;2.03;0.85;;;;;;;10.57;57.18;100865.19;4955214;28;20453;-77
2022/06/07 07:54:10;;;;;;;3.95;1.70;;;;;;;10.42;56.92;100863.16;4939798;28;20114;-78
2022/06/07 07:56:37;;;;;;;4.25;1.13;;;;;;;10.48;57.59;100867.28;4968984;28;20050;-76
2022/06/07 07:59:08;;;;;;;2.70;1.00;;;;;;;10.89;55.64;100873.50;4952435;28;20540;-78
2022/06/07 08:01:36;;;;;;;2.20;1.10;;;;;;;9.98;57.06;100852.66;4956506;28;20098;-76
2022/06/07 08:04:03;;;;;;;7.88;1.35;;;;;;;11.94;53.45;100864.59;4952762;28;20042;-77
2022/06/07 08:06:42;;;;;;;3.50;0.82;;;;;;;13.19;50.27;100867.31;4961329;28;20069;-78
2022/06/07 08:09:09;;;;;;;2.40;0.50;;;;;;;13.65;48.33;100872.84;4947961;28;20078;-77
2022/06/07 08:11:38;;;;;;;5.15;1.25;;;;;;;14.01;46.26;100868.28;4938191;28;20350;-77
2022/06/07 08:14:06;;;;;;;2.00;0.40;;;;;;;14.89;44.43;100872.97;4967467;28;20457;-77
2022/06/07 08:16:32;;;;;;;3.17;0.30;;;;;;;13.92;44.96;100873.13;4945611;28;20070;-77
2022/06/07 08:18:58;;;;;;;3.45;0.30;;;;;;;15.00;41.90;100877.63;4957338;28;20054;-77
2022/06/07 08:21:27;;;;;;;0.55;0.15;;;;;;;13.34;45.06;100881.44;4960116;28;20438;-76
2022/06/07 08:23:56;;;;;;;3.92;0.45;;;;;;;12.41;48.10;100873.78;4946411;28;20043;-77
2022/06/07 08:26:24;;;;;;;5.47;1.42;;;;;;;12.85;47.98;100876.88;4950288;28;20082;-78
2022/06/07 08:28:49;;;;;;;7.03;0.52;;;;;;;12.77;45.90;100875.56;4954802;28;20047;-76
2022/06/07 08:31:22;;;;;;;2.42;0.32;;;;;;;11.85;49.18;100880.72;4956554;28;20046;-78
2022/06/07 08:39:19;;;;;;;3.10;0.25;;;;;;;13.60;46.75;100871.38;4948113;28;20987;-76
2022/06/07 08:41:49;;;;;;;0.80;0.30;;;;;;;14.74;44.59;100879.13;4947876;28;20047;-80
2022/06/07 08:44:27;;;;;;;4.00;0.40;;;;;;;14.28;45.36;100884.34;4953005;28;20930;-77
2022/06/07 08:46:56;;;;;;;1.15;0.38;;;;;;;15.11;43.69;100879.63;4962545;28;21052;-79
2022/06/07 08:49:23;;;;;;;3.33;0.40;;;;;;;14.25;45.33;100869.56;4936118;28;20114;-77
2022/06/07 08:51:56;;;;;;;2.40;0.55;;;;;;;14.30;45.35;100878.06;4934519;28;20039;-78
2022/06/07 08:54:27;;;;;;;2.47;0.40;;;;;;;14.72;46.03;100884.50;4954849;28;20035;-75
2022/06/07 08:56:53;;;;;;;1.80;0.30;;;;;;;16.79;42.51;100878.00;4967983;28;20037;-78
2022/06/07 08:59:21;;;;;;;2.17;0.30;;;;;;;16.56;40.54;100887.41;4947796;28;20050;-79
2022/06/07 09:02:07;;;;;;;1.98;0.25;;;;;;;15.27;42.08;100879.59;4946324;28;20046;-77
2022/06/07 09:04:36;;;;;;;2.60;0.30;;;;;;;14.86;44.35;100888.13;4951567;28;20039;-77
2022/06/07 09:07:04;;;;;;;1.30;0.30;;;;;;;15.08;43.15;100883.28;4955939;28;20027;-77
2022/06/07 09:12:22;;;;;;;4.22;0.40;;;;;;;14.18;44.82;100891.03;4964319;28;20059;-76
2022/06/07 09:14:52;;;;;;;3.08;0.30;;;;;;;13.51;45.60;100899.75;4936045;28;20588;-77
2022/06/07 09:17:29;;;;;;;4.82;0.55;;;;;;;13.63;45.63;100897.47;4949300;28;20043;-78
2022/06/07 09:19:55;;;;;;;1.73;0.40;;;;;;;12.76;48.16;100898.34;4965360;28;20117;-77
2022/06/07 09:22:37;;;;;;;1.48;0.22;;;;;;;13.42;46.80;100902.88;4963866;28;20046;-76
2022/06/07 09:25:06;;;;;;;1.73;0.40;;;;;;;14.08;45.39;100894.16;4951324;28;20089;-78
2022/06/07 09:27:33;;;;;;;2.60;0.88;;;;;;;15.25;43.47;100899.91;4962883;28;20134;-78
2022/06/07 09:30:19;;;;;;;2.90;0.30;;;;;;;13.92;44.25;100912.53;4956012;28;20046;-76
2022/06/07 09:32:50;;;;;;;3.75;0.50;;;;;;;13.70;45.88;100919.88;4961303;28;20106;-79
2022/06/07 09:35:20;;;;;;;2.80;0.30;;;;;;;12.47;48.14;100910.19;4945524;28;20038;-78
2022/06/07 09:37:55;;;;;;;3.25;0.30;;;;;;;13.21;47.33;100923.19;4976692;28;20126;-76
2022/06/07 09:40:31;;;;;;;6.60;0.82;;;;;;;12.85;48.76;100918.84;4957139;28;20042;-78
2022/06/07 09:43:17;;;;;;;4.25;0.82;;;;;;;12.85;48.54;100923.25;4954416;28;20046;-77
2022/06/07 09:46:08;;;;;;;2.45;0.65;;;;;;;12.52;48.68;100925.69;4955832;28;20038;-79
2022/06/07 09:48:43;;;;;;;1.92;0.30;;;;;;;12.53;48.16;100925.59;4955000;28;20490;-78
2022/06/07 09:51:28;;;;;;;3.55;0.40;;;;;;;12.23;48.35;100928.75;4975647;28;20031;-78
2022/06/07 09:54:14;;;;;;;3.88;0.40;;;;;;;12.94;47.15;100919.31;4959141;28;20054;-77
2022/06/07 09:56:56;;;;;;;1.40;0.32;;;;;;;13.18;46.29;100931.22;4980527;28;20262;-78
2022/06/07 09:59:33;;;;;;;4.95;0.30;;;;;;;13.60;46.05;100937.03;4969646;28;20539;-77
2022/06/07 10:02:26;;;;;;;2.70;0.32;;;;;;;13.48;44.85;100926.19;4955457;28;20039;-78
2022/06/07 10:05:00;;;;;;;6.53;0.52;;;;;;;13.02;46.68;100939.00;4970305;28;20417;-76
2022/06/07 10:07:34;;;;;;;5.50;0.57;;;;;;;12.49;47.91;100938.03;4954498;28;20401;-78
2022/06/07 10:10:08;;;;;;;4.07;0.57;;;;;;;12.42;47.88;100938.38;4956641;28;20070;-77
2022/06/07 10:12:56;;;;;;;3.83;0.20;;;;;;;12.43;46.80;100927.81;4957887;28;20066;-78
2022/06/07 10:15:50;;;;;;;3.63;0.20;;;;;;;11.84;48.25;100936.63;4955524;28;20102;-78
2022/06/07 10:18:38;;;;;;;2.42;0.20;;;;;;;12.44;47.10;100936.53;4958316;28;20134;-78
2022/06/07 10:21:19;;;;;;;3.70;0.85;;;;;;;11.86;48.17;100960.97;4954789;28;20039;-78
2022/06/07 10:23:59;;;;;;;2.50;0.43;;;;;;;11.85;46.96;100938.34;4971799;28;20061;-78
2022/06/07 10:26:34;;;;;;;5.50;0.20;;;;;;;12.55;46.17;100949.13;4958389;28;20031;-78
2022/06/07 10:29:20;;;;;;;2.35;0.63;;;;;;;12.17;46.89;100949.97;4973319;28;20062;-78
2022/06/07 10:32:11;;;;;;;1.88;0.57;;;;;;;12.31;45.65;100951.13;4970476;28;20669;-78
2022/06/07 10:34:58;;;;;;;0.55;0.30;;;;;;;12.56;45.23;100945.56;4944135;28;20058;-79
2022/06/07 10:37:55;;;;;;;2.28;0.17;;;;;;;12.95;44.05;100953.34;4958907;28;20067;-78
2022/06/07 10:40:30;;;;;;;0.90;0.10;;;;;;;12.78;44.87;100940.19;4973673;28;20038;-78
2022/06/07 10:43:07;;;;;;;4.88;0.20;;;;;;;13.43;43.94;100943.97;4960255;28;20051;-77
2022/06/07 10:45:37;;;;;;;7.43;0.10;;;;;;;13.69;43.27;100939.16;4944255;28;20050;-78
2022/06/07 10:48:10;;;;;;;4.13;0.38;;;;;;;13.29;43.33;100955.16;4971229;28;20042;-80
2022/06/07 10:50:54;;;;;;;1.40;0.10;;;;;;;12.57;44.63;100948.13;4975685;28;20114;-80
2022/06/07 10:53:26;;;;;;;2.05;0.10;;;;;;;12.85;45.10;100962.59;4962807;28;20049;-79
2022/06/07 10:56:23;;;;;;;1.10;0.20;;;;;;;12.76;45.13;100957.78;4948571;28;20050;-76
2022/06/07 10:58:52;;;;;;;1.30;0.10;;;;;;;12.90;43.91;100965.84;4961507;28;20047;-80
2022/06/07 11:01:42;;;;;;;4.18;0.20;;;;;;;12.90;43.82;100957.97;4967731;28;20045;-76
2022/06/07 11:10:11;;;;;;;2.92;0.35;;;;;;;13.64;42.36;100972.72;4977412;28;20038;-76
2022/06/07 11:12:49;;;;;;;4.07;0.17;;;;;;;12.87;44.04;100984.34;4956087;28;20563;-78
2022/06/07 11:15:25;;;;;;;2.97;0.35;;;;;;;12.89;45.01;100979.88;4973244;28;20027;-77
2022/06/07 11:18:20;;;;;;;4.50;0.20;;;;;;;12.79;43.80;100983.88;4973498;28;20043;-77
2022/06/07 11:21:10;;;;;;;2.30;0.10;;;;;;;12.59;43.87;100987.41;4957082;28;20057;-76
2022/06/07 11:23:43;;;;;;;2.35;0.20;;;;;;;12.59;44.39;100992.66;4953935;28;20059;-77
2022/06/07 11:26:15;;;;;;;6.47;0.30;;;;;;;12.22;44.44;100999.56;4956534;28;20126;-75
2022/06/07 11:28:41;;;;;;;2.63;0.40;;;;;;;12.28;45.24;101000.13;4951677;28;20089;-77
2022/06/07 11:31:40;;;;;;;2.95;0.30;;;;;;;12.02;45.35;100998.69;4961687;28;20035;-77
2022/06/07 11:34:19;;;;;;;1.70;0.40;;;;;;;11.86;46.67;100998.50;4971274;28;20046;-75
2022/06/07 11:36:46;;;;;;;2.10;0.10;;;;;;;11.96;45.43;100996.34;4974600;28;20528;-78
2022/06/07 11:39:50;;;;;;;2.72;0.30;;;;;;;12.43;44.48;100995.97;4961184;28;20066;-77
2022/06/07 11:42:28;;;;;;;1.85;0.20;;;;;;;12.84;43.32;101003.69;4956953;28;20135;-77
2022/06/07 11:44:58;;;;;;;1.15;0.20;;;;;;;13.96;41.13;100996.44;4962604;28;20533;-77
2022/06/07 11:47:33;;;;;;;4.32;0.60;;;;;;;13.97;40.73;100992.91;4959728;28;20054;-76
2022/06/07 11:50:01;;;;;;;0.75;0.10;;;;;;;14.89;38.87;100995.81;4965330;28;20042;-77
2022/06/07 11:52:33;;;;;;;5.78;0.10;;;;;;;14.60;39.36;100997.44;4958128;28;20054;-76
2022/06/07 11:55:08;;;;;;;;;;;;;;;14.43;40.32;100998.34;4959529;28;20115;-75
2022/06/07 11:57:40;;;;;;;5.75;0.40;;;;;;;13.94;41.02;100991.25;4956917;28;20005;-77
2022/06/07 12:00:17;;;;;;;;;;;;;;;13.84;41.74;100996.16;4973392;28;20031;-77
2022/06/07 12:03:02;;;;;;;1.88;0.10;;;;;;;12.88;43.39;100989.53;4969907;28;19922;-76
2022/06/07 12:05:46;;;;;;;2.60;0.10;;;;;;;12.20;45.24;101007.50;4959548;28;20035;-78